createdAt,value
2023-01-08T00:00:48.415Z,3.86
2023-01-08T00:03:15.119Z,3.91
2023-01-08T00:05:41.672Z,3.93
2023-01-08T00:08:11.033Z,3.93
2023-01-08T00:10:38.177Z,3.93
2023-01-08T00:13:05.594Z,3.95
2023-01-08T00:15:32.808Z,3.94
2023-01-08T00:17:59.452Z,3.88
2023-01-08T00:20:26.172Z,3.88
2023-01-08T00:22:52.849Z,3.89
2023-01-08T00:25:19.615Z,3.92
2023-01-08T00:27:46.429Z,3.95
2023-01-08T00:30:13.176Z,3.95
2023-01-08T00:32:39.666Z,3.92
2023-01-08T00:35:06.392Z,3.94
2023-01-08T00:37:32.859Z,3.97
2023-01-08T00:39:59.301Z,4.01
2023-01-08T00:42:25.763Z,4.06
2023-01-08T00:44:52.287Z,4.06
2023-01-08T00:47:18.757Z,4.05
2023-01-08T00:49:45.209Z,4.04
2023-01-08T00:52:12.127Z,4.03
2023-01-08T00:54:38.584Z,4.03
2023-01-08T00:57:05.022Z,4.04
2023-01-08T00:59:31.445Z,4.05
2023-01-08T01:01:58.013Z,4.06
2023-01-08T01:04:25.967Z,4.08
2023-01-08T01:06:52.432Z,4.09
2023-01-08T01:09:18.916Z,4.06
2023-01-08T01:11:45.329Z,4.03
2023-01-08T01:14:11.760Z,4.00
2023-01-08T01:16:40.098Z,4.00
2023-01-08T01:19:06.602Z,4.01
2023-01-08T01:21:33.099Z,3.99
2023-01-08T01:24:00.924Z,3.97
2023-01-08T01:26:27.867Z,3.97
2023-01-08T01:28:55.644Z,3.93
2023-01-08T01:31:22.513Z,3.94
2023-01-08T01:33:49.852Z,3.91
2023-01-08T01:36:17.417Z,3.92
2023-01-08T01:38:44.813Z,3.89
2023-01-08T01:41:24.847Z,3.88
2023-01-08T01:43:51.606Z,3.87
2023-01-08T01:46:28.264Z,3.79
2023-01-08T01:48:56.814Z,3.78
2023-01-08T01:51:25.782Z,3.81
2023-01-08T01:53:52.187Z,3.81
2023-01-08T01:56:18.623Z,3.79
2023-01-08T01:58:45.104Z,3.72
2023-01-08T02:01:12.117Z,3.72
2023-01-08T02:03:39.599Z,3.78
2023-01-08T02:06:06.179Z,3.85
2023-01-08T02:08:35.512Z,3.88
2023-01-08T02:11:06.851Z,3.91
2023-01-08T02:13:36.735Z,3.93
2023-01-08T02:16:06.148Z,3.92
2023-01-08T02:18:35.341Z,3.91
2023-01-08T02:21:05.443Z,3.91
2023-01-08T02:23:53.209Z,3.91
2023-01-08T02:26:31.131Z,3.93
2023-01-08T02:29:00.770Z,3.92
2023-01-08T02:31:28.359Z,3.93
2023-01-08T02:33:54.852Z,3.94
2023-01-08T02:36:27.138Z,3.94
2023-01-08T02:39:00.430Z,3.96
2023-01-08T02:41:34.003Z,3.97
2023-01-08T02:44:00.901Z,3.97
2023-01-08T02:46:30.160Z,3.98
2023-01-08T02:49:01.685Z,4.01
2023-01-08T02:51:29.842Z,4.05
2023-01-08T02:53:59.241Z,4.08
2023-01-08T02:56:32.086Z,4.08
2023-01-08T02:58:59.715Z,4.06
2023-01-08T03:01:27.720Z,4.05
2023-01-08T03:03:56.871Z,4.03
2023-01-08T03:06:23.531Z,4.02
2023-01-08T03:08:51.781Z,4.00
2023-01-08T03:11:19.536Z,3.99
2023-01-08T03:13:51.065Z,3.99
2023-01-08T03:16:20.758Z,4.03
2023-01-08T03:18:50.743Z,4.05
2023-01-08T03:21:18.193Z,4.04
2023-01-08T03:23:45.269Z,4.03
2023-01-08T03:26:13.912Z,4.02
2023-01-08T03:28:44.352Z,4.03
2023-01-08T03:31:11.584Z,4.01
2023-01-08T03:33:38.578Z,4.00
2023-01-08T03:36:06.529Z,3.97
2023-01-08T03:38:35.412Z,3.94
2023-01-08T03:41:07.290Z,3.95
2023-01-08T03:43:33.834Z,3.86
2023-01-08T03:46:02.358Z,3.85
2023-01-08T03:48:30.396Z,3.85
2023-01-08T03:50:56.815Z,3.87
2023-01-08T03:53:23.243Z,3.83
2023-01-08T03:55:49.688Z,3.85
2023-01-08T03:58:16.115Z,3.79
2023-01-08T04:00:42.583Z,3.77
2023-01-08T04:03:09.610Z,3.77
2023-01-08T04:05:36.192Z,3.79
2023-01-08T04:08:02.641Z,3.77
2023-01-08T04:10:29.097Z,3.78
2023-01-08T04:12:55.591Z,3.78
2023-01-08T04:15:22.159Z,3.77
2023-01-08T04:17:48.576Z,3.79
2023-01-08T04:20:15.048Z,3.82
2023-01-08T04:22:41.637Z,3.82
2023-01-08T04:25:08.306Z,3.79
2023-01-08T04:27:34.755Z,3.79
2023-01-08T04:30:01.198Z,3.80
2023-01-08T04:32:27.693Z,3.81
2023-01-08T04:34:54.113Z,3.81
2023-01-08T04:37:20.641Z,3.81
2023-01-08T04:39:47.215Z,3.79
2023-01-08T04:42:13.732Z,3.80
2023-01-08T04:44:40.185Z,3.79
2023-01-08T04:47:06.636Z,3.80
2023-01-08T04:49:33.120Z,3.81
2023-01-08T04:51:59.556Z,3.79
2023-01-08T04:54:26.043Z,3.79
2023-01-08T04:56:52.572Z,3.80
2023-01-08T04:59:19.194Z,3.84
2023-01-08T05:01:45.781Z,3.83
2023-01-08T05:04:12.385Z,3.85
2023-01-08T05:06:38.895Z,3.87
2023-01-08T05:09:05.337Z,3.88
2023-01-08T05:11:31.765Z,3.88
2023-01-08T05:13:58.309Z,3.87
2023-01-08T05:16:24.776Z,3.88
2023-01-08T05:18:51.241Z,3.89
2023-01-08T05:21:17.946Z,3.91
2023-01-08T05:23:45.605Z,3.89
2023-01-08T05:26:12.197Z,3.88
2023-01-08T05:28:38.612Z,3.87
2023-01-08T05:31:05.269Z,3.90
2023-01-08T05:33:31.746Z,3.91
2023-01-08T05:35:58.181Z,3.91
2023-01-08T05:38:24.613Z,3.90
2023-01-08T05:40:54.201Z,3.89
2023-01-08T05:43:20.631Z,3.91
2023-01-08T05:45:47.082Z,3.94
2023-01-08T05:48:13.518Z,3.93
2023-01-08T05:50:39.971Z,3.93
2023-01-08T05:53:07.575Z,3.94
2023-01-08T05:55:34.385Z,3.94
2023-01-08T05:58:04.665Z,3.94
2023-01-08T06:00:31.439Z,3.96
2023-01-08T06:02:58.194Z,3.98
2023-01-08T06:05:24.808Z,3.98
2023-01-08T06:07:51.251Z,4.00
2023-01-08T06:10:17.766Z,4.00
2023-01-08T06:12:44.203Z,4.03
2023-01-08T06:15:11.948Z,4.04
2023-01-08T06:17:38.440Z,4.04
2023-01-08T06:20:05.114Z,4.04
2023-01-08T06:22:33.478Z,4.06
2023-01-08T06:25:00.117Z,4.06
2023-01-08T06:27:26.636Z,4.02
2023-01-08T06:29:53.091Z,4.02
2023-01-08T06:32:19.672Z,4.06
2023-01-08T06:34:46.128Z,4.08
2023-01-08T06:37:12.703Z,4.10
2023-01-08T06:39:39.141Z,4.12
2023-01-08T06:42:05.600Z,4.11
2023-01-08T06:44:32.060Z,4.13
2023-01-08T06:46:58.520Z,4.14
2023-01-08T06:49:24.939Z,4.17
2023-01-08T06:51:51.419Z,4.16
2023-01-08T06:54:17.878Z,4.14
2023-01-08T06:56:53.293Z,4.18
2023-01-08T06:59:20.727Z,4.18
2023-01-08T07:01:47.296Z,4.18
2023-01-08T07:04:13.811Z,4.18
2023-01-08T07:06:40.260Z,4.20
2023-01-08T07:09:06.768Z,4.19
2023-01-08T07:11:33.648Z,4.19
2023-01-08T07:14:00.143Z,4.21
2023-01-08T07:16:26.668Z,4.22
2023-01-08T07:18:53.146Z,4.26
2023-01-08T07:21:21.075Z,4.26
2023-01-08T07:23:48.570Z,4.27
2023-01-08T07:26:15.017Z,4.29
2023-01-08T07:28:42.056Z,4.31
2023-01-08T07:31:08.843Z,4.33
2023-01-08T07:33:35.621Z,4.34
2023-01-08T07:36:02.111Z,4.37
2023-01-08T07:38:28.757Z,4.37
2023-01-08T07:40:57.134Z,4.42
2023-01-08T07:43:23.738Z,4.42
2023-01-08T07:45:50.191Z,4.42
2023-01-08T07:48:16.701Z,4.43
2023-01-08T07:50:43.999Z,4.43
2023-01-08T07:53:11.491Z,4.45
2023-01-08T07:55:37.918Z,4.47
2023-01-08T07:58:08.883Z,4.50
2023-01-08T08:00:35.778Z,4.55
2023-01-08T08:03:03.329Z,4.59
2023-01-08T08:05:29.916Z,4.62
2023-01-08T08:07:56.422Z,4.62
2023-01-08T08:10:22.846Z,4.67
2023-01-08T08:12:49.310Z,4.72
2023-01-08T08:15:15.805Z,4.76
2023-01-08T08:17:48.897Z,4.80
2023-01-08T08:20:15.756Z,4.82
2023-01-08T08:22:42.218Z,4.88
2023-01-08T08:25:08.784Z,4.93
2023-01-08T08:27:35.219Z,4.95
2023-01-08T08:30:01.713Z,4.93
2023-01-08T08:32:28.151Z,4.94
2023-01-08T08:34:54.581Z,5.00
2023-01-08T08:37:21.074Z,5.03
2023-01-08T08:39:47.601Z,5.04
2023-01-08T08:42:14.038Z,5.05
2023-01-08T08:44:42.731Z,5.09
2023-01-08T08:47:09.670Z,5.15
2023-01-08T08:49:39.976Z,5.17
2023-01-08T08:52:06.432Z,5.16
2023-01-08T08:54:32.928Z,5.21
2023-01-08T08:56:59.369Z,5.27
2023-01-08T08:59:26.083Z,5.27
2023-01-08T09:01:52.594Z,5.30
2023-01-08T09:04:19.072Z,5.28
2023-01-08T09:06:45.511Z,5.30
2023-01-08T09:09:12.158Z,5.31
2023-01-08T09:11:38.623Z,5.33
2023-01-08T09:14:05.102Z,5.37
2023-01-08T09:16:33.127Z,5.42
2023-01-08T09:18:59.657Z,5.45
2023-01-08T09:21:26.196Z,5.43
2023-01-08T09:23:52.711Z,5.46
2023-01-08T09:26:19.221Z,5.51
2023-01-08T09:28:45.932Z,5.55
2023-01-08T09:31:12.438Z,5.58
2023-01-08T09:33:38.951Z,5.61
2023-01-08T09:36:08.645Z,5.62
2023-01-08T09:38:35.162Z,5.64
2023-01-08T09:41:04.455Z,5.69
2023-01-08T09:43:32.173Z,5.73
2023-01-08T09:46:00.804Z,5.73
2023-01-08T09:48:29.885Z,5.75
2023-01-08T09:50:57.245Z,5.77
2023-01-08T09:53:24.561Z,5.83
2023-01-08T09:56:15.504Z,5.86
2023-01-08T09:58:46.699Z,5.91
2023-01-08T10:01:14.485Z,5.92
2023-01-08T10:03:46.748Z,5.93
2023-01-08T10:06:14.523Z,5.96
2023-01-08T10:08:41.305Z,6.00
2023-01-08T10:11:09.110Z,5.94
2023-01-08T10:13:37.424Z,5.92
2023-01-08T10:16:07.368Z,5.99
2023-01-08T10:18:35.078Z,6.00
2023-01-08T10:21:01.527Z,6.00
2023-01-08T10:23:28.007Z,6.03
2023-01-08T10:26:01.822Z,6.10
2023-01-08T10:28:32.551Z,6.16
2023-01-08T10:31:06.409Z,6.18
2023-01-08T10:33:40.950Z,6.20
2023-01-08T10:36:08.951Z,6.18
2023-01-08T10:38:42.024Z,6.22
2023-01-08T10:41:13.664Z,6.18
2023-01-08T10:43:54.122Z,6.23
2023-01-08T10:46:23.392Z,6.27
2023-01-08T10:49:01.278Z,6.23
2023-01-08T10:51:29.280Z,6.24
2023-01-08T10:53:58.120Z,6.31
2023-01-08T10:56:25.832Z,6.33
2023-01-08T10:58:52.424Z,6.36
2023-01-08T11:01:26.893Z,6.39
2023-01-08T11:04:05.067Z,6.38
2023-01-08T11:06:33.320Z,6.40
2023-01-08T11:09:01.580Z,6.44
2023-01-08T11:11:37.758Z,6.50
2023-01-08T11:14:05.653Z,6.52
2023-01-08T11:16:41.864Z,6.57
2023-01-08T11:19:19.559Z,6.61
2023-01-08T11:22:15.398Z,6.58
2023-01-08T11:24:42.403Z,6.61
2023-01-08T11:27:11.646Z,6.64
2023-01-08T11:29:56.097Z,6.69
2023-01-08T11:32:46.363Z,6.70
2023-01-08T11:35:25.527Z,6.72
2023-01-08T11:38:00.050Z,6.77
2023-01-08T11:40:46.735Z,6.76
2023-01-08T11:43:25.174Z,6.80
2023-01-08T11:45:54.952Z,6.83
2023-01-08T11:48:21.401Z,6.84
2023-01-08T11:51:06.331Z,6.82
2023-01-08T11:53:43.711Z,6.84
2023-01-08T11:56:28.832Z,6.83
2023-01-08T11:59:07.499Z,6.83
2023-01-08T12:01:44.788Z,6.82
2023-01-08T12:04:35.091Z,6.86
2023-01-08T12:07:09.665Z,6.86
2023-01-08T12:09:46.023Z,6.85
2023-01-08T12:12:27.749Z,6.90
2023-01-08T12:15:04.196Z,6.92
2023-01-08T12:17:33.629Z,6.97
2023-01-08T12:20:19.413Z,7.02
2023-01-08T12:22:58.581Z,7.01
2023-01-08T12:25:43.906Z,7.07
2023-01-08T12:28:22.593Z,7.06
2023-01-08T12:30:55.189Z,7.09
2023-01-08T12:33:23.798Z,7.14
2023-01-08T12:35:53.262Z,7.20
2023-01-08T12:38:27.813Z,7.18
2023-01-08T12:41:02.107Z,7.13
2023-01-08T12:43:35.527Z,7.12
2023-01-08T12:46:02.952Z,7.14
2023-01-08T12:48:31.234Z,7.15
2023-01-08T12:51:01.571Z,7.16
2023-01-08T12:53:32.648Z,7.14
2023-01-08T12:56:02.469Z,7.20
2023-01-08T12:58:33.624Z,7.25
2023-01-08T13:01:00.147Z,7.30
2023-01-08T13:03:29.419Z,7.31
2023-01-08T13:06:07.309Z,7.27
2023-01-08T13:08:35.003Z,7.30
2023-01-08T13:11:02.441Z,7.28
2023-01-08T13:13:30.777Z,7.33
2023-01-08T13:16:07.305Z,7.35
2023-01-08T13:18:34.048Z,7.31
2023-01-08T13:21:01.973Z,7.30
2023-01-08T13:23:29.879Z,7.30
2023-01-08T13:25:58.019Z,7.31
2023-01-08T13:28:24.436Z,7.25
2023-01-08T13:30:51.487Z,7.28
2023-01-08T13:33:24.062Z,7.26
2023-01-08T13:35:50.721Z,7.28
2023-01-08T13:38:18.413Z,7.27
2023-01-08T13:40:44.851Z,7.31
2023-01-08T13:43:26.617Z,7.30
2023-01-08T13:46:13.430Z,7.34
2023-01-08T13:48:47.937Z,7.38
2023-01-08T13:51:35.056Z,7.38
2023-01-08T13:54:06.837Z,7.38
2023-01-08T13:56:33.316Z,7.34
2023-01-08T13:59:02.102Z,7.38
2023-01-08T14:01:28.837Z,7.33
2023-01-08T14:03:55.342Z,7.33
2023-01-08T14:06:25.590Z,7.33
2023-01-08T14:09:14.794Z,7.31
2023-01-08T14:11:46.573Z,7.36
2023-01-08T14:14:13.955Z,7.36
2023-01-08T14:16:41.344Z,7.26
2023-01-08T14:19:08.255Z,7.24
2023-01-08T14:21:34.854Z,7.29
2023-01-08T14:24:01.356Z,7.34
2023-01-08T14:26:31.498Z,7.33
2023-01-08T14:28:57.999Z,7.31
2023-01-08T14:31:26.628Z,7.35
2023-01-08T14:33:53.819Z,7.35
2023-01-08T14:36:20.915Z,7.35
2023-01-08T14:38:50.949Z,7.28
2023-01-08T14:41:20.999Z,7.27
2023-01-08T14:43:49.984Z,7.28
2023-01-08T14:46:19.165Z,7.25
2023-01-08T14:48:46.082Z,7.25
2023-01-08T14:51:20.667Z,7.18
2023-01-08T14:53:56.273Z,7.20
2023-01-08T14:56:28.280Z,7.17
2023-01-08T14:58:55.535Z,7.22
2023-01-08T15:01:29.524Z,7.27
2023-01-08T15:04:25.343Z,7.27
2023-01-08T15:06:52.891Z,7.29
2023-01-08T15:09:30.206Z,7.23
2023-01-08T15:11:58.022Z,7.20
2023-01-08T15:14:25.297Z,7.22
2023-01-08T15:16:55.284Z,7.21
2023-01-08T15:19:26.765Z,7.17
2023-01-08T15:21:54.494Z,7.17
2023-01-08T15:24:27.614Z,7.12
2023-01-08T15:26:54.489Z,7.10
2023-01-08T15:29:23.745Z,7.12
2023-01-08T15:31:50.340Z,7.09
2023-01-08T15:34:18.720Z,7.06
2023-01-08T15:36:45.883Z,7.14
2023-01-08T15:39:12.419Z,7.19
2023-01-08T15:41:58.274Z,7.18
2023-01-08T15:44:25.457Z,7.23
2023-01-08T15:46:52.009Z,7.25
2023-01-08T15:49:18.574Z,7.25
2023-01-08T15:51:46.706Z,7.21
2023-01-08T15:54:13.267Z,7.23
2023-01-08T15:56:39.728Z,7.25
2023-01-08T15:59:06.297Z,7.19
2023-01-08T16:01:34.798Z,7.19
2023-01-08T16:04:01.414Z,7.23
2023-01-08T16:06:27.907Z,7.20
2023-01-08T16:08:57.699Z,7.18
2023-01-08T16:11:24.148Z,7.14
2023-01-08T16:13:50.588Z,7.10
2023-01-08T16:16:17.419Z,7.14
2023-01-08T16:18:44.206Z,7.20
2023-01-08T16:21:11.071Z,7.22
2023-01-08T16:23:38.182Z,7.23
2023-01-08T16:26:05.562Z,7.22
2023-01-08T16:28:31.992Z,7.23
2023-01-08T16:30:58.466Z,7.17
2023-01-08T16:33:24.896Z,7.19
2023-01-08T16:35:58.035Z,7.24
2023-01-08T16:38:27.484Z,7.25
2023-01-08T16:40:56.689Z,7.26
2023-01-08T16:43:27.425Z,7.25
2023-01-08T16:45:55.188Z,7.22
2023-01-08T16:48:22.739Z,7.28
2023-01-08T16:50:49.523Z,7.32
2023-01-08T16:53:21.616Z,7.31
2023-01-08T16:55:48.070Z,7.28
2023-01-08T16:58:14.650Z,7.29
2023-01-08T17:00:41.163Z,7.33
2023-01-08T17:03:07.651Z,7.35
2023-01-08T17:05:36.083Z,7.33
2023-01-08T17:08:02.500Z,7.28
2023-01-08T17:10:28.930Z,7.28
2023-01-08T17:12:55.369Z,7.28
2023-01-08T17:15:21.807Z,7.31
2023-01-08T17:17:48.277Z,7.31
2023-01-08T17:20:15.092Z,7.31
2023-01-08T17:22:41.513Z,7.35
2023-01-08T17:25:08.215Z,7.35
2023-01-08T17:27:35.066Z,7.31
2023-01-08T17:30:01.597Z,7.38
2023-01-08T17:32:29.386Z,7.42
2023-01-08T17:34:55.943Z,7.40
2023-01-08T17:37:22.459Z,7.40
2023-01-08T17:39:48.935Z,7.38
2023-01-08T17:42:24.443Z,7.40
2023-01-08T17:44:51.565Z,7.35
2023-01-08T17:47:19.780Z,7.38
2023-01-08T17:49:53.240Z,7.31
2023-01-08T17:52:20.293Z,7.34
2023-01-08T17:54:52.932Z,7.30
2023-01-08T17:57:20.946Z,7.30
2023-01-08T17:59:48.410Z,7.25
2023-01-08T18:02:16.179Z,7.24
2023-01-08T18:04:43.974Z,7.27
2023-01-08T18:07:10.621Z,7.30
2023-01-08T18:09:37.209Z,7.28
2023-01-08T18:12:03.769Z,7.29
2023-01-08T18:14:30.214Z,7.29
2023-01-08T18:16:56.768Z,7.33
2023-01-08T18:19:23.284Z,7.34
2023-01-08T18:21:49.731Z,7.33
2023-01-08T18:24:16.247Z,7.30
2023-01-08T18:26:42.985Z,7.28
2023-01-08T18:29:09.438Z,7.27
2023-01-08T18:31:35.942Z,7.21
2023-01-08T18:34:03.821Z,7.13
2023-01-08T18:36:30.415Z,7.16
2023-01-08T18:38:57.495Z,7.19
2023-01-08T18:41:42.317Z,7.19
2023-01-08T18:44:10.044Z,7.19
2023-01-08T18:46:37.093Z,7.24
2023-01-08T18:49:03.987Z,7.19
2023-01-08T18:51:30.432Z,7.20
2023-01-08T18:53:56.949Z,7.17
2023-01-08T18:56:31.290Z,7.13
2023-01-08T18:58:57.776Z,7.13
2023-01-08T19:01:24.839Z,7.19
2023-01-08T19:03:51.423Z,7.17
2023-01-08T19:06:18.216Z,7.11
2023-01-08T19:08:45.009Z,7.12
2023-01-08T19:11:11.835Z,7.09
2023-01-08T19:13:38.673Z,7.07
2023-01-08T19:16:05.926Z,7.09
2023-01-08T19:18:32.664Z,7.08
2023-01-08T19:21:00.111Z,7.09
2023-01-08T19:23:26.617Z,7.13
2023-01-08T19:25:53.201Z,7.15
2023-01-08T19:28:19.682Z,7.14
2023-01-08T19:30:53.525Z,7.21
2023-01-08T19:33:19.960Z,7.20
2023-01-08T19:35:46.399Z,7.23
2023-01-08T19:38:12.927Z,7.26
2023-01-08T19:40:39.492Z,7.26
2023-01-08T19:43:24.740Z,7.28
2023-01-08T19:45:51.282Z,7.30
2023-01-08T19:48:18.071Z,7.29
2023-01-08T19:50:46.909Z,7.29
2023-01-08T19:53:14.569Z,7.27
2023-01-08T19:55:41.281Z,7.25
2023-01-08T19:58:07.929Z,7.30
2023-01-08T20:00:37.647Z,7.26
2023-01-08T20:03:04.667Z,7.21
2023-01-08T20:05:31.519Z,7.25
2023-01-08T20:07:57.969Z,7.22
2023-01-08T20:10:24.595Z,7.23
2023-01-08T20:12:51.023Z,7.23
2023-01-08T20:15:19.251Z,7.21
2023-01-08T20:17:45.764Z,7.24
2023-01-08T20:20:12.523Z,7.24
2023-01-08T20:22:39.001Z,7.22
2023-01-08T20:25:06.203Z,7.21
2023-01-08T20:27:32.698Z,7.20
2023-01-08T20:29:59.200Z,7.22
2023-01-08T20:32:25.643Z,7.22
2023-01-08T20:34:52.123Z,7.23
2023-01-08T20:37:18.548Z,7.23
2023-01-08T20:39:46.123Z,7.27
2023-01-08T20:42:17.705Z,7.26
2023-01-08T20:44:53.910Z,7.23
2023-01-08T20:47:20.340Z,7.26
2023-01-08T20:49:46.775Z,7.30
2023-01-08T20:52:14.808Z,7.23
2023-01-08T20:54:41.250Z,7.14
2023-01-08T20:57:07.792Z,7.13
2023-01-08T20:59:34.291Z,7.14
2023-01-08T21:02:01.309Z,7.07
2023-01-08T21:04:27.881Z,7.01
2023-01-08T21:06:54.395Z,7.02
2023-01-08T21:09:20.953Z,7.07
2023-01-08T21:11:47.428Z,7.12
2023-01-08T21:14:13.884Z,7.14
2023-01-08T21:16:40.678Z,7.14
2023-01-08T21:19:10.271Z,7.12
2023-01-08T21:21:40.015Z,7.09
2023-01-08T21:24:09.027Z,7.08
2023-01-08T21:26:36.922Z,7.10
2023-01-08T21:29:04.264Z,6.98
2023-01-08T21:31:30.742Z,6.91
2023-01-08T21:33:58.404Z,6.87
2023-01-08T21:36:26.303Z,6.86
2023-01-08T21:38:53.158Z,6.90
2023-01-08T21:41:39.586Z,6.90
2023-01-08T21:44:28.845Z,6.87
2023-01-08T21:46:55.303Z,6.88
2023-01-08T21:49:21.747Z,6.87
2023-01-08T21:52:06.725Z,6.86
2023-01-08T21:54:33.153Z,6.87
2023-01-08T21:56:59.601Z,6.87
2023-01-08T21:59:26.046Z,6.84
2023-01-08T22:01:52.519Z,6.88
2023-01-08T22:04:19.070Z,6.86
2023-01-08T22:06:45.507Z,6.84
2023-01-08T22:09:11.960Z,6.84
2023-01-08T22:11:38.589Z,6.85
2023-01-08T22:14:05.047Z,6.86
2023-01-08T22:16:31.569Z,6.87
2023-01-08T22:18:58.085Z,6.82
2023-01-08T22:21:24.564Z,6.84
2023-01-08T22:23:51.171Z,6.83
2023-01-08T22:26:20.095Z,6.83
2023-01-08T22:28:46.722Z,6.83
2023-01-08T22:31:14.029Z,6.87
2023-01-08T22:33:40.475Z,6.86
2023-01-08T22:36:08.736Z,6.88
2023-01-08T22:38:35.343Z,6.95
2023-01-08T22:41:02.144Z,6.99
2023-01-08T22:43:28.783Z,7.03
2023-01-08T22:45:56.336Z,7.02
2023-01-08T22:48:23.344Z,7.01
2023-01-08T22:50:50.019Z,7.03
2023-01-08T22:53:16.470Z,7.03
2023-01-08T22:55:43.720Z,7.06
2023-01-08T22:58:10.169Z,7.11
2023-01-08T23:00:38.235Z,7.17
2023-01-08T23:03:06.018Z,7.17
2023-01-08T23:05:33.076Z,7.17
2023-01-08T23:07:59.702Z,7.17
2023-01-08T23:10:26.589Z,7.17
2023-01-08T23:12:53.079Z,7.24
2023-01-08T23:15:20.015Z,7.26
2023-01-08T23:17:52.230Z,7.21
2023-01-08T23:20:19.699Z,7.29
2023-01-08T23:22:47.096Z,7.29
2023-01-08T23:25:13.840Z,7.29
2023-01-08T23:27:40.514Z,7.30
2023-01-08T23:30:07.268Z,7.28
2023-01-08T23:32:33.702Z,7.30
2023-01-08T23:35:01.132Z,7.33
2023-01-08T23:37:27.584Z,7.33
2023-01-08T23:39:54.033Z,7.30
2023-01-08T23:42:20.491Z,7.28
2023-01-08T23:44:48.847Z,7.28
2023-01-08T23:47:15.294Z,7.19
2023-01-08T23:49:41.798Z,7.18
2023-01-08T23:52:08.233Z,7.15
2023-01-08T23:54:35.960Z,7.14
2023-01-08T23:57:02.986Z,7.18
2023-01-08T23:59:29.508Z,7.17
